Time;durP1;ratioP1;P1;durP2;ratioP2;P2;SDS_P1;SDS_P2;PMS_P1;PMS_P2;Temp;Humidity;BMP_temperature;BMP_pressure;BME280_temperature;BME280_humidity;BME280_pressure;Samples;Min_cycle;Max_cycle;Signal;HPM_P1;HPM_P2
2021/06/04 00:00:30;;;;;;;4.87;4.47;;;;;;;20.32;83.05;96775.81;4997335;28;20484;-69
2021/06/04 00:03:01;;;;;;;4.33;4.03;;;;;;;20.35;82.84;96774.44;4996060;28;20806;-69
2021/06/04 00:05:32;;;;;;;4.60;4.30;;;;;;;20.32;82.62;96773.13;4977392;28;20966;-60
2021/06/04 00:07:58;;;;;;;4.53;4.23;;;;;;;20.33;83.22;96766.72;4992554;28;20463;-60
2021/06/04 00:10:36;;;;;;;4.47;4.17;;;;;;;20.31;82.47;96766.19;4997033;28;20495;-70
2021/06/04 00:13:14;;;;;;;5.20;4.80;;;;;;;20.31;82.26;96776.84;4995479;28;20204;-69
2021/06/04 00:15:39;;;;;;;4.97;4.67;;;;;;;20.25;82.62;96769.97;4997200;28;20480;-60
2021/06/04 00:18:05;;;;;;;4.20;4.00;;;;;;;20.23;82.35;96772.13;4996661;28;20511;-60
2021/06/04 00:20:30;;;;;;;4.67;4.27;;;;;;;20.22;82.13;96777.72;4997204;28;20166;-60
2021/06/04 00:22:55;;;;;;;4.13;3.83;;;;;;;20.23;81.77;96766.78;4995109;28;20213;-69
2021/06/04 00:25:22;;;;;;;4.50;4.10;;;;;;;20.23;81.41;96763.31;4996968;28;20200;-69
2021/06/04 00:27:48;;;;;;;4.03;3.77;;;;;;;20.20;81.45;96761.22;4996314;28;20655;-69
2021/06/04 00:30:15;;;;;;;4.47;4.17;;;;;;;20.15;81.27;96772.66;4996668;28;20962;-60
2021/06/04 00:32:41;;;;;;;3.90;3.60;;;;;;;20.09;81.10;96760.41;4995677;28;20440;-69
2021/06/04 00:35:08;;;;;;;4.67;4.37;;;;;;;20.05;81.32;96766.59;4996489;28;20409;-60
2021/06/04 00:37:33;;;;;;;4.50;4.20;;;;;;;20.00;81.60;96766.63;4995000;28;20432;-69
2021/06/04 00:39:59;;;;;;;4.53;4.13;;;;;;;20.00;81.95;96759.38;4996511;28;20955;-60
2021/06/04 00:42:33;;;;;;;4.60;4.30;;;;;;;19.99;82.11;96765.81;4993764;28;20181;-60
2021/06/04 00:45:00;;;;;;;4.10;3.80;;;;;;;19.98;82.30;96761.56;4990893;28;20205;-69
2021/06/04 00:47:26;;;;;;;4.80;4.50;;;;;;;19.97;82.31;96765.28;4996011;28;20428;-60
2021/06/04 00:49:51;;;;;;;4.60;4.30;;;;;;;19.96;81.87;96762.91;4996610;28;20452;-69
2021/06/04 00:52:22;;;;;;;5.07;4.77;;;;;;;19.98;81.71;96764.22;4989462;28;20421;-61
2021/06/04 00:54:48;;;;;;;5.50;5.10;;;;;;;19.93;82.31;96764.22;4976806;28;20197;-69
2021/06/04 00:57:14;;;;;;;5.00;4.60;;;;;;;19.91;82.43;96761.03;4994396;28;20420;-69
2021/06/04 00:59:43;;;;;;;4.33;4.03;;;;;;;19.87;82.93;96754.69;4978717;28;20427;-69
2021/06/04 01:02:16;;;;;;;4.60;4.20;;;;;;;19.87;82.69;96754.69;4994639;28;20177;-69
2021/06/04 01:04:43;;;;;;;4.60;4.20;;;;;;;19.85;83.05;96756.00;4995651;28;20866;-60
2021/06/04 01:07:21;;;;;;;4.70;4.40;;;;;;;19.83;82.94;96758.97;4995349;28;20515;-69
2021/06/04 01:10:16;;;;;;;4.57;4.27;;;;;;;19.84;82.39;96765.88;4994159;28;20456;-69
2021/06/04 01:13:07;;;;;;;4.20;4.00;;;;;;;19.78;82.64;96766.19;4994921;28;20424;-60
2021/06/04 01:15:41;;;;;;;4.33;4.03;;;;;;;19.77;82.55;96765.38;4995739;28;20416;-60
2021/06/04 01:18:15;;;;;;;4.00;3.80;;;;;;;19.79;82.39;96763.25;4993116;28;20942;-60
2021/06/04 01:21:14;;;;;;;4.23;4.03;;;;;;;19.78;82.15;96769.66;4994775;28;20911;-60
2021/06/04 01:23:48;;;;;;;4.60;4.20;;;;;;;19.83;81.83;96766.16;4980857;28;20978;-60
2021/06/04 01:26:32;;;;;;;4.30;4.00;;;;;;;19.79;81.91;96760.56;4995346;28;20421;-69
2021/06/04 01:29:22;;;;;;;4.13;3.83;;;;;;;19.72;82.31;96768.06;4994101;28;20401;-69
2021/06/04 01:31:52;;;;;;;4.97;4.57;;;;;;;19.75;82.09;96764.06;4982095;28;20531;-69
2021/06/04 01:34:26;;;;;;;4.70;4.40;;;;;;;19.71;82.01;96766.47;4982425;28;20986;-60
2021/06/04 01:36:57;;;;;;;4.77;4.20;;;;;;;19.63;82.91;96769.72;4984955;28;20428;-69
2021/06/04 01:39:51;;;;;;;4.77;4.47;;;;;;;19.61;83.07;96763.84;4992239;28;20440;-60
2021/06/04 01:42:23;;;;;;;6.10;5.70;;;;;;;19.65;83.19;96764.09;4988121;28;20436;-60
2021/06/04 01:45:03;;;;;;;4.73;4.43;;;;;;;19.64;82.85;96765.97;4994735;28;20471;-59
2021/06/04 01:47:34;;;;;;;5.73;5.30;;;;;;;19.66;83.38;96769.16;4995015;28;20746;-60
2021/06/04 01:50:07;;;;;;;6.00;5.57;;;;;;;19.63;82.94;96767.03;4993694;28;20475;-69
2021/06/04 01:52:37;;;;;;;7.57;6.70;;;;;;;19.62;83.05;96767.31;4990701;28;20926;-69
2021/06/04 01:55:20;;;;;;;7.40;6.80;;;;;;;19.53;83.34;96768.94;4994794;28;20888;-60
2021/06/04 01:57:50;;;;;;;6.07;5.57;;;;;;;19.58;83.20;96766.25;4994797;28;20460;-60
2021/06/04 02:00:44;;;;;;;6.83;6.33;;;;;;;19.62;82.67;96767.31;4994660;28;20847;-60
2021/06/04 02:03:14;;;;;;;7.83;7.20;;;;;;;19.61;82.57;96768.38;4976165;28;20453;-60
2021/06/04 02:05:41;;;;;;;10.73;9.60;;;;;;;19.59;82.80;96762.50;4991562;28;20428;-69
2021/06/04 02:08:14;;;;;;;8.47;7.80;;;;;;;19.59;83.07;96770.50;4994281;28;20431;-60
2021/06/04 02:10:49;;;;;;;9.20;8.40;;;;;;;19.63;82.79;96763.56;4994704;28;20448;-69
2021/06/04 02:13:15;;;;;;;8.27;7.47;;;;;;;19.61;83.26;96766.50;4994055;28;20443;-60
2021/06/04 02:15:44;;;;;;;8.33;7.63;;;;;;;19.62;83.35;96765.44;4988551;28;20434;-60
2021/06/04 02:18:28;;;;;;;8.20;7.50;;;;;;;19.57;83.61;96775.34;4975269;28;20768;-60
2021/06/04 02:21:01;;;;;;;6.30;5.90;;;;;;;19.55;83.36;96778.25;4983851;28;20431;-68
2021/06/04 02:23:29;;;;;;;6.07;5.67;;;;;;;19.54;83.63;96782.00;4993738;28;21022;-62
2021/06/04 02:26:00;;;;;;;5.23;4.73;;;;;;;19.54;82.86;96779.34;4994506;28;20448;-62
2021/06/04 02:28:41;;;;;;;4.60;4.23;;;;;;;19.53;82.61;96774.28;4994307;28;20428;-68
2021/06/04 02:31:28;;;;;;;4.93;4.53;;;;;;;19.47;82.83;96778.84;4993729;28;20551;-62
2021/06/04 02:34:05;;;;;;;5.00;4.50;;;;;;;19.51;83.10;96782.56;4993430;28;22431;-68
2021/06/04 02:36:36;;;;;;;5.03;4.63;;;;;;;19.55;82.57;96782.81;4994523;28;20405;-62
2021/06/04 02:39:26;;;;;;;4.70;4.40;;;;;;;19.54;82.56;96778.53;4994046;28;20475;-62
2021/06/04 02:42:03;;;;;;;5.17;4.60;;;;;;;19.56;82.50;96785.22;4994152;28;20416;-68
2021/06/04 02:44:34;;;;;;;5.70;5.30;;;;;;;19.60;82.45;96777.47;4993230;28;20911;-62
2021/06/04 02:47:07;;;;;;;5.93;5.50;;;;;;;19.61;82.19;96771.84;4982971;28;20453;-62
2021/06/04 02:49:34;;;;;;;7.03;6.40;;;;;;;19.59;83.08;96781.19;4986445;28;20523;-62
2021/06/04 02:52:09;;;;;;;8.00;7.30;;;;;;;19.61;82.59;96777.19;4993919;28;20411;-63
2021/06/04 02:54:40;;;;;;;7.47;6.80;;;;;;;19.62;82.89;96770.00;4993884;28;20514;-68
2021/06/04 02:57:13;;;;;;;7.23;6.73;;;;;;;19.64;83.20;96768.63;4994341;28;20874;-62
2021/06/04 02:59:42;;;;;;;7.63;6.83;;;;;;;19.67;82.63;96762.78;4993154;28;20416;-62
2021/06/04 03:02:25;;;;;;;8.07;7.47;;;;;;;19.70;82.90;96769.41;4989496;28;20431;-69
2021/06/04 03:05:00;;;;;;;7.90;7.23;;;;;;;19.70;82.60;96772.06;4986597;28;20452;-62
2021/06/04 03:07:36;;;;;;;7.70;7.10;;;;;;;19.70;82.77;96775.56;4993394;28;20424;-62
2021/06/04 03:10:07;;;;;;;7.67;6.97;;;;;;;19.71;82.87;96774.47;4976597;28;20845;-68
2021/06/04 03:12:40;;;;;;;7.00;6.43;;;;;;;19.73;82.77;96783.00;4993276;28;20479;-62
2021/06/04 03:15:13;;;;;;;7.17;6.60;;;;;;;19.75;82.59;96772.84;4994101;28;20431;-68
2021/06/04 03:17:38;;;;;;;7.00;6.50;;;;;;;19.77;82.80;96777.91;4984241;28;20484;-62
2021/06/04 03:20:08;;;;;;;6.40;6.00;;;;;;;19.77;83.00;96776.06;4974689;28;20414;-62
2021/06/04 03:22:37;;;;;;;7.53;6.93;;;;;;;19.79;83.15;96783.78;4985683;28;20195;-62
2021/06/04 03:25:16;;;;;;;7.70;6.00;;;;;;;19.76;83.39;96785.13;4993099;28;20891;-68
2021/06/04 03:27:43;;;;;;;6.90;6.40;;;;;;;19.74;83.59;96784.59;4993830;28;20413;-63
2021/06/04 03:30:10;;;;;;;7.83;7.10;;;;;;;19.79;83.62;96786.44;4994139;28;20452;-62
2021/06/04 03:32:36;;;;;;;7.40;6.80;;;;;;;19.77;83.75;96784.06;4992895;28;20443;-66
2021/06/04 03:35:03;;;;;;;7.60;6.80;;;;;;;19.80;83.57;96785.38;4974216;28;20417;-62
2021/06/04 03:37:29;;;;;;;8.20;7.50;;;;;;;19.81;83.40;96789.63;4974312;28;20190;-62
2021/06/04 03:39:54;;;;;;;8.63;7.93;;;;;;;19.81;83.93;96787.78;4974528;28;20859;-62
2021/06/04 03:42:27;;;;;;;8.23;7.53;;;;;;;19.79;84.35;96787.25;4980265;28;20204;-62
2021/06/04 03:44:53;;;;;;;7.63;7.03;;;;;;;19.78;84.20;96792.84;4993665;28;20271;-62
2021/06/04 03:47:19;;;;;;;8.00;7.40;;;;;;;19.84;84.03;96797.13;4993239;28;20907;-68
2021/06/04 03:49:45;;;;;;;7.83;7.23;;;;;;;19.93;83.82;96795.47;4974508;28;20198;-68
2021/06/04 03:52:13;;;;;;;8.53;7.80;;;;;;;19.98;84.07;96800.78;4960998;28;20504;-68
2021/06/04 03:54:43;;;;;;;7.27;6.67;;;;;;;19.91;83.93;96803.72;4993052;28;20516;-63
2021/06/04 03:57:13;;;;;;;7.80;7.13;;;;;;;19.93;84.52;96798.91;4993726;28;20419;-62
2021/06/04 03:59:39;;;;;;;7.57;6.87;;;;;;;19.93;84.57;96796.25;4993622;28;20440;-62
2021/06/04 04:02:09;;;;;;;6.17;5.77;;;;;;;19.99;84.36;96794.34;4993006;28;20903;-66
2021/06/04 04:04:35;;;;;;;7.50;6.90;;;;;;;20.02;83.98;96793.81;4992378;28;21012;-62
2021/06/04 04:07:00;;;;;;;7.37;6.77;;;;;;;20.10;84.14;96791.38;4993620;28;20440;-62
2021/06/04 04:09:25;;;;;;;6.67;6.20;;;;;;;20.18;84.10;96790.81;4993493;28;20227;-63
2021/06/04 04:11:53;;;;;;;6.97;6.47;;;;;;;20.24;84.18;96791.59;4993736;28;20539;-69
2021/06/04 04:14:20;;;;;;;6.80;6.20;;;;;;;20.32;84.30;96785.69;4996909;28;20252;-68
2021/06/04 04:16:45;;;;;;;6.97;6.30;;;;;;;20.41;84.33;96795.50;4978978;28;20792;-62
2021/06/04 04:19:11;;;;;;;7.87;6.80;;;;;;;20.48;84.36;96798.66;4989131;28;20429;-62
2021/06/04 04:21:37;;;;;;;8.10;7.40;;;;;;;20.47;84.66;96804.28;4992958;28;20197;-68
2021/06/04 04:24:10;;;;;;;8.27;7.57;;;;;;;20.20;86.93;96807.34;4996829;28;20668;-69
2021/06/04 04:26:38;;;;;;;7.23;6.60;;;;;;;20.16;88.21;96800.97;4996367;28;20424;-69
2021/06/04 04:29:04;;;;;;;8.03;7.23;;;;;;;20.26;88.00;96805.47;4996764;28;20421;-62
2021/06/04 04:31:34;;;;;;;7.53;6.90;;;;;;;20.30;87.90;96801.16;4996119;28;20510;-63
2021/06/04 04:34:00;;;;;;;7.97;7.37;;;;;;;20.40;87.71;96807.25;4995793;28;20205;-69
2021/06/04 04:36:30;;;;;;;8.27;7.57;;;;;;;20.45;87.94;96806.44;4996054;28;20898;-62
2021/06/04 04:38:56;;;;;;;7.77;7.27;;;;;;;20.40;88.65;96806.44;4997029;28;20415;-62
2021/06/04 04:41:21;;;;;;;9.00;7.30;;;;;;;20.49;88.60;96807.44;4996448;28;20503;-62
2021/06/04 04:43:50;;;;;;;8.17;7.37;;;;;;;20.54;88.93;96812.78;4996107;28;20197;-68
2021/06/04 04:46:19;;;;;;;7.80;7.20;;;;;;;20.69;88.62;96812.66;4996131;28;20173;-62
2021/06/04 04:48:45;;;;;;;7.23;6.70;;;;;;;20.77;88.66;96819.28;4989934;28;20469;-63
2021/06/04 04:51:12;;;;;;;7.10;6.60;;;;;;;20.79;88.16;96841.16;4996102;28;21061;-68
2021/06/04 04:53:37;;;;;;;7.93;7.20;;;;;;;20.76;88.66;96842.53;4995545;28;20248;-62
2021/06/04 04:56:05;;;;;;;7.37;6.83;;;;;;;20.85;88.44;96826.72;4995603;28;20449;-62
2021/06/04 04:58:30;;;;;;;7.40;6.70;;;;;;;20.97;87.84;96830.63;4996165;28;20177;-62
2021/06/04 05:00:56;;;;;;;7.83;7.33;;;;;;;20.95;88.01;96831.97;4996050;28;20420;-62
2021/06/04 05:03:22;;;;;;;8.40;7.77;;;;;;;20.80;88.59;96827.53;4994707;28;20280;-62
2021/06/04 05:05:48;;;;;;;7.47;6.87;;;;;;;20.94;88.31;96827.72;4980603;28;20224;-69
2021/06/04 05:08:15;;;;;;;8.73;7.83;;;;;;;21.00;88.53;96827.41;4995698;28;20413;-63
2021/06/04 05:10:40;;;;;;;8.03;7.50;;;;;;;21.03;88.37;96828.72;4995919;28;20460;-69
2021/06/04 05:13:08;;;;;;;7.20;6.60;;;;;;;21.01;88.30;96823.69;4995478;28;20951;-69
2021/06/04 05:15:36;;;;;;;7.93;7.43;;;;;;;20.98;88.36;96823.41;4995830;28;20750;-62
2021/06/04 05:18:03;;;;;;;8.20;7.50;;;;;;;20.90;88.99;96829.34;4995924;28;20495;-62
2021/06/04 05:20:28;;;;;;;7.63;7.03;;;;;;;20.98;88.23;96823.41;4981415;28;20422;-68
2021/06/04 05:22:56;;;;;;;7.53;7.03;;;;;;;20.85;88.60;96826.72;4985319;28;20814;-62
2021/06/04 05:25:26;;;;;;;8.50;7.60;;;;;;;20.94;88.18;96828.50;4995738;28;20651;-62
2021/06/04 05:27:51;;;;;;;7.80;7.20;;;;;;;21.00;87.49;96822.06;4995548;28;20428;-68
2021/06/04 05:30:33;;;;;;;6.50;6.00;;;;;;;21.01;86.96;96820.19;4995643;28;20456;-62
2021/06/04 05:33:00;;;;;;;6.20;5.67;;;;;;;21.06;86.88;96831.66;4995027;28;20687;-62
2021/06/04 05:35:27;;;;;;;6.20;5.60;;;;;;;21.21;86.99;96831.53;4994544;28;20444;-69
2021/06/04 05:37:53;;;;;;;6.10;5.60;;;;;;;21.38;86.46;96823.06;4994925;28;20486;-62
2021/06/04 05:40:23;;;;;;;6.83;6.33;;;;;;;21.38;85.90;96823.06;4995611;28;20413;-62
2021/06/04 05:42:49;;;;;;;6.13;5.67;;;;;;;21.50;85.52;96820.81;4994761;28;20962;-62
2021/06/04 05:45:17;;;;;;;6.30;5.90;;;;;;;21.49;83.97;96820.00;4995406;28;20503;-68
2021/06/04 05:47:44;;;;;;;6.13;5.73;;;;;;;21.55;83.87;96823.44;4994742;28;20432;-62
2021/06/04 05:50:14;;;;;;;9.43;5.87;;;;;;;21.55;83.88;96828.78;4991753;28;20455;-62
2021/06/04 05:52:44;;;;;;;7.00;6.50;;;;;;;21.52;84.07;96832.81;4987699;28;20431;-62
2021/06/04 05:55:11;;;;;;;5.80;5.30;;;;;;;21.60;84.18;96827.91;4995197;28;20490;-62
2021/06/04 05:57:37;;;;;;;5.27;4.97;;;;;;;21.86;83.44;96835.44;4994537;28;20444;-63
2021/06/04 06:00:08;;;;;;;5.73;5.20;;;;;;;21.91;82.73;96834.56;4994905;28;20444;-69
2021/06/04 06:02:34;;;;;;;5.40;5.00;;;;;;;22.07;82.58;96828.75;4994402;28;20188;-68
2021/06/04 06:04:59;;;;;;;5.40;5.00;;;;;;;22.17;82.07;96831.31;4989251;28;20434;-62
2021/06/04 06:07:24;;;;;;;5.50;5.10;;;;;;;22.22;80.71;96841.94;4988496;28;20632;-68
2021/06/04 06:09:50;;;;;;;5.23;4.77;;;;;;;22.33;80.50;96832.69;4994497;28;20201;-68
2021/06/04 06:12:15;;;;;;;4.77;4.37;;;;;;;22.41;80.61;96844.66;4993135;28;20260;-63
2021/06/04 06:14:41;;;;;;;4.90;4.50;;;;;;;22.56;80.01;96841.00;4991460;28;20691;-62
2021/06/04 06:17:06;;;;;;;5.07;4.67;;;;;;;22.67;80.27;96837.06;4993955;28;20186;-69
2021/06/04 06:19:32;;;;;;;4.23;3.93;;;;;;;22.72;79.58;96837.78;4994236;28;20655;-62
2021/06/04 06:21:58;;;;;;;4.17;3.87;;;;;;;22.81;78.88;96845.97;4993863;28;20513;-69
2021/06/04 06:24:24;;;;;;;4.50;4.20;;;;;;;22.83;78.67;96846.50;4983630;28;20716;-62
2021/06/04 06:26:49;;;;;;;4.30;3.97;;;;;;;22.90;78.26;96846.91;4975046;28;20448;-67
2021/06/04 06:29:16;;;;;;;4.00;3.80;;;;;;;22.92;77.99;96847.44;4978756;28;20173;-63
2021/06/04 06:31:43;;;;;;;5.60;5.20;;;;;;;22.92;78.48;96855.47;4988564;28;20222;-67
2021/06/04 06:34:10;;;;;;;4.83;4.50;;;;;;;22.96;77.95;96851.91;4976695;28;20426;-67
2021/06/04 06:36:38;;;;;;;5.17;4.87;;;;;;;23.00;77.69;96852.09;4994118;28;20455;-63
2021/06/04 06:39:10;;;;;;;4.93;4.53;;;;;;;22.90;76.72;96860.31;4993189;28;20428;-67
2021/06/04 06:41:37;;;;;;;5.43;4.67;;;;;;;22.92;76.42;96858.94;4985314;28;20844;-66
2021/06/04 06:44:02;;;;;;;4.53;4.23;;;;;;;22.93;76.83;96863.22;4990202;28;20443;-68
2021/06/04 06:46:28;;;;;;;4.43;4.10;;;;;;;23.00;77.01;96871.69;4990453;28;20424;-66
2021/06/04 06:48:54;;;;;;;3.80;3.60;;;;;;;23.05;77.18;96876.16;4990349;28;20228;-64
2021/06/04 06:51:20;;;;;;;4.20;3.90;;;;;;;23.12;77.88;96872.03;4971845;28;20568;-67
2021/06/04 06:53:46;;;;;;;4.33;4.03;;;;;;;23.18;77.60;96868.19;4989468;28;20440;-66
2021/06/04 06:56:13;;;;;;;4.70;4.40;;;;;;;23.25;77.70;96871.28;4990590;28;20660;-63
2021/06/04 06:58:40;;;;;;;4.20;3.87;;;;;;;23.28;78.02;96867.22;4989796;28;20185;-63
2021/06/04 07:01:07;;;;;;;4.10;3.80;;;;;;;23.32;78.35;96869.03;4989148;28;20421;-66
2021/06/04 07:03:37;;;;;;;4.10;3.80;;;;;;;23.34;79.18;96871.41;4992103;28;20893;-68
2021/06/04 07:06:15;;;;;;;4.97;4.40;;;;;;;23.38;79.41;96869.75;4994093;28;20444;-62
2021/06/04 07:08:41;;;;;;;4.10;3.80;;;;;;;23.41;79.03;96875.31;4993765;28;20933;-68
2021/06/04 07:11:06;;;;;;;3.50;3.30;;;;;;;23.29;77.49;96871.50;4993184;28;20488;-62
2021/06/04 07:13:32;;;;;;;4.20;3.87;;;;;;;23.27;75.81;96879.81;4993592;28;20193;-68
2021/06/04 07:16:03;;;;;;;4.07;3.70;;;;;;;23.28;75.44;96877.94;4994023;28;20264;-62
2021/06/04 07:18:29;;;;;;;4.10;3.70;;;;;;;23.22;75.59;96881.78;4994115;28;20170;-68
2021/06/04 07:20:56;;;;;;;3.60;3.40;;;;;;;23.20;75.05;96887.47;4987116;28;20430;-68
2021/06/04 07:23:23;;;;;;;4.00;3.70;;;;;;;23.27;74.65;96892.44;4988017;28;20201;-68
2021/06/04 07:25:48;;;;;;;4.80;3.10;;;;;;;23.23;73.27;96891.41;4993889;28;20409;-62
2021/06/04 07:28:16;;;;;;;3.30;3.10;;;;;;;23.30;72.97;96897.25;4994137;28;20884;-69
2021/06/04 07:30:47;;;;;;;3.37;2.60;;;;;;;23.38;71.27;96892.03;4993825;28;20197;-69
2021/06/04 07:33:34;;;;;;;2.40;2.23;;;;;;;23.49;70.50;96895.31;4991763;28;20440;-62
2021/06/04 07:36:05;;;;;;;3.20;2.30;;;;;;;23.38;66.42;96892.03;4993407;28;20464;-62
2021/06/04 07:38:31;;;;;;;3.50;2.47;;;;;;;23.39;67.13;96892.78;4994181;28;20448;-62
2021/06/04 07:40:59;;;;;;;3.07;2.67;;;;;;;23.39;65.40;96892.78;4993933;28;20503;-68
2021/06/04 07:43:27;;;;;;;2.80;2.60;;;;;;;23.56;65.16;96893.06;4993278;28;20204;-62
2021/06/04 07:45:53;;;;;;;2.90;2.70;;;;;;;23.64;66.34;96884.34;4995135;28;20409;-64
2021/06/04 07:48:20;;;;;;;3.20;2.90;;;;;;;23.80;66.88;96891.03;4990200;28;20425;-62
2021/06/04 07:50:48;;;;;;;2.43;2.33;;;;;;;23.92;67.28;96883.25;4977876;28;20932;-62
2021/06/04 07:53:16;;;;;;;2.97;2.13;;;;;;;23.93;65.36;96876.81;4977473;28;20515;-68
2021/06/04 07:55:43;;;;;;;5.33;2.23;;;;;;;24.10;65.62;96882.41;4978062;28;20420;-68
2021/06/04 07:58:09;;;;;;;2.70;2.27;;;;;;;24.23;65.16;96881.63;4996705;28;20419;-62
2021/06/04 08:00:37;;;;;;;2.40;2.20;;;;;;;24.26;62.91;96870.25;4997398;28;20401;-69
2021/06/04 08:03:05;;;;;;;2.10;2.00;;;;;;;24.31;62.95;96875.53;4996851;28;20192;-62
2021/06/04 08:05:32;;;;;;;2.23;1.87;;;;;;;24.43;62.36;96877.72;4977552;28;20424;-69
2021/06/04 08:08:02;;;;;;;4.30;2.20;;;;;;;24.53;62.00;96864.06;4977971;28;20409;-62
2021/06/04 08:10:27;;;;;;;4.50;2.20;;;;;;;24.66;62.06;96873.19;4977758;28;20592;-69
2021/06/04 08:12:53;;;;;;;2.70;2.10;;;;;;;24.67;61.21;96880.16;4977144;28;20936;-68
2021/06/04 08:15:30;;;;;;;3.53;2.57;;;;;;;24.66;62.20;96875.88;4977622;28;20607;-62
2021/06/04 08:17:56;;;;;;;3.20;2.20;;;;;;;24.76;62.98;96881.06;4977746;28;20173;-69
2021/06/04 08:20:31;;;;;;;2.50;2.30;;;;;;;24.82;63.08;96879.84;4979364;28;20496;-68
2021/06/04 08:23:02;;;;;;;4.20;2.37;;;;;;;24.83;59.87;96884.94;4989004;28;20970;-69
2021/06/04 08:25:33;;;;;;;3.03;2.57;;;;;;;24.71;62.35;96879.28;4977428;28;20415;-69
2021/06/04 08:27:59;;;;;;;3.90;2.20;;;;;;;24.58;57.25;96881.97;4996402;28;20416;-63
2021/06/04 08:30:25;;;;;;;3.60;2.73;;;;;;;24.82;59.09;96879.84;4994354;28;20464;-67
2021/06/04 08:32:51;;;;;;;3.73;2.87;;;;;;;24.97;57.25;96879.50;4992676;28;20448;-68
2021/06/04 08:35:17;;;;;;;2.50;2.30;;;;;;;24.96;55.16;96886.78;4993307;28;20424;-65
2021/06/04 08:37:43;;;;;;;3.50;2.57;;;;;;;24.80;57.58;96890.13;4985578;28;20174;-69
2021/06/04 08:40:13;;;;;;;2.60;2.40;;;;;;;24.94;57.71;96888.97;4973643;28;20417;-67
2021/06/04 08:42:51;;;;;;;3.13;2.93;;;;;;;25.03;57.16;96887.16;4988499;28;20185;-66
2021/06/04 08:45:29;;;;;;;2.90;2.43;;;;;;;24.97;58.64;96888.38;4992480;28;20424;-69
2021/06/04 08:48:05;;;;;;;2.67;2.47;;;;;;;25.12;58.69;96882.63;4993081;28;20415;-68
2021/06/04 08:50:58;;;;;;;3.40;2.87;;;;;;;25.12;58.50;96887.22;4992583;28;20448;-67
2021/06/04 08:53:43;;;;;;;3.20;2.87;;;;;;;25.35;58.29;96880.72;4978869;28;20452;-68
2021/06/04 08:56:13;;;;;;;2.83;2.63;;;;;;;25.47;57.64;96877.53;4992576;28;20459;-68
2021/06/04 08:59:05;;;;;;;3.70;2.80;;;;;;;25.55;59.07;96874.88;4989664;28;20424;-68
2021/06/04 09:01:38;;;;;;;3.53;3.07;;;;;;;25.51;58.84;96868.50;4973240;28;20460;-66
2021/06/04 09:04:11;;;;;;;3.53;3.13;;;;;;;25.66;58.58;96881.59;4977120;28;20669;-69
2021/06/04 09:06:57;;;;;;;3.17;2.87;;;;;;;25.96;57.19;96872.69;4991799;28;20814;-68
2021/06/04 09:09:45;;;;;;;3.20;2.57;;;;;;;26.12;55.38;96868.53;4992541;28;20494;-65
2021/06/04 09:12:21;;;;;;;3.03;2.73;;;;;;;26.35;56.67;96870.00;4986252;28;21034;-68
2021/06/04 09:14:49;;;;;;;3.57;3.27;;;;;;;26.56;56.64;96867.50;4992412;28;21006;-65
2021/06/04 09:17:52;;;;;;;6.90;2.80;;;;;;;26.60;56.11;96865.00;4991398;28;20516;-65
2021/06/04 09:20:34;;;;;;;3.53;2.80;;;;;;;26.55;57.35;96865.94;4912929;29;21215;-66
2021/06/04 09:23:04;;;;;;;3.20;3.00;;;;;;;26.62;59.04;96865.44;4967838;28;20456;-66
2021/06/04 09:25:32;;;;;;;3.30;3.00;;;;;;;26.82;57.08;96864.88;4992460;28;20842;-69
2021/06/04 09:28:09;;;;;;;3.40;3.20;;;;;;;26.98;57.96;96855.97;4991913;28;20491;-69
2021/06/04 09:30:44;;;;;;;3.43;2.93;;;;;;;26.91;57.54;96861.06;4981893;28;20573;-67
2021/06/04 09:33:18;;;;;;;3.53;3.23;;;;;;;26.82;57.87;96860.28;4985930;28;20443;-68
2021/06/04 09:35:55;;;;;;;4.10;3.40;;;;;;;26.96;57.62;96858.19;4992016;28;20409;-66
2021/06/04 09:38:34;;;;;;;3.47;3.27;;;;;;;27.06;56.34;96865.19;4991693;28;20432;-68
2021/06/04 09:41:17;;;;;;;3.07;2.87;;;;;;;26.96;56.80;96862.81;4992093;28;20458;-63
2021/06/04 09:43:42;;;;;;;6.03;3.97;;;;;;;27.05;57.43;96850.13;4990062;28;20494;-65
2021/06/04 09:46:10;;;;;;;3.70;3.37;;;;;;;27.02;56.59;96848.03;4984393;28;21196;-70
2021/06/04 09:48:58;;;;;;;7.10;3.63;;;;;;;27.01;55.91;96844.56;4991455;28;20525;-63
2021/06/04 09:51:30;;;;;;;3.83;3.40;;;;;;;27.10;55.76;96841.84;4991633;28;20558;-63
2021/06/04 09:54:15;;;;;;;3.60;3.40;;;;;;;27.18;56.44;96843.75;4990733;28;20447;-69
2021/06/04 09:56:41;;;;;;;3.77;3.47;;;;;;;27.18;56.76;96841.03;4991706;28;20444;-69
2021/06/04 09:59:12;;;;;;;4.13;3.57;;;;;;;27.31;57.11;96840.91;4991379;28;20848;-68
2021/06/04 10:01:49;;;;;;;3.67;3.47;;;;;;;27.33;57.31;96835.97;4990592;28;20521;-68
2021/06/04 10:04:24;;;;;;;3.83;3.53;;;;;;;27.36;56.26;96834.53;4980580;28;20448;-66
2021/06/04 10:06:59;;;;;;;3.67;3.07;;;;;;;27.51;55.70;96823.22;4988902;28;20427;-67
2021/06/04 10:09:42;;;;;;;3.00;2.80;;;;;;;27.54;56.32;96836.06;4990745;28;20407;-67
2021/06/04 10:12:34;;;;;;;4.20;3.50;;;;;;;27.50;57.42;96845.16;4990457;28;20459;-70
2021/06/04 10:15:26;;;;;;;4.23;3.93;;;;;;;27.30;56.01;96833.09;4991033;28;20401;-67
2021/06/04 10:20:29;;;;;;;4.00;3.70;;;;;;;27.55;55.55;96826.88;4975248;28;20504;-68
2021/06/04 10:23:15;;;;;;;3.30;3.10;;;;;;;27.64;56.15;96830.34;4971633;28;20503;-71
2021/06/04 10:25:45;;;;;;;3.87;3.57;;;;;;;27.69;55.60;96840.16;4989813;28;20487;-68
2021/06/04 10:28:38;;;;;;;5.83;4.20;;;;;;;27.63;55.23;96844.16;4991122;28;20416;-72
2021/06/04 10:31:16;;;;;;;3.33;3.17;;;;;;;27.68;55.98;96839.38;4990092;28;20461;-69
2021/06/04 10:33:47;;;;;;;4.40;3.10;;;;;;;27.70;54.60;96836.34;4980498;28;20758;-66
2021/06/04 10:36:18;;;;;;;3.77;3.47;;;;;;;27.71;56.60;96835.22;4991000;28;20408;-66
2021/06/04 10:38:49;;;;;;;3.67;3.37;;;;;;;27.72;57.04;96826.03;4973371;28;20421;-69
2021/06/04 10:41:20;;;;;;;4.43;3.30;;;;;;;27.81;55.13;96829.50;4988184;28;20922;-67
2021/06/04 10:43:54;;;;;;;4.27;3.10;;;;;;;27.85;53.72;96823.09;4971531;28;20440;-68
2021/06/04 10:46:24;;;;;;;5.50;3.50;;;;;;;27.80;54.08;96823.28;4972661;28;20405;-67
2021/06/04 10:48:55;;;;;;;5.00;3.20;;;;;;;27.82;53.64;96831.06;4971373;28;20414;-68
2021/06/04 10:51:27;;;;;;;3.13;2.93;;;;;;;27.85;54.29;96825.00;4972008;28;20471;-64
2021/06/04 10:54:17;;;;;;;3.23;3.03;;;;;;;27.89;54.45;96829.44;4978835;28;20560;-68
2021/06/04 10:56:53;;;;;;;3.20;3.00;;;;;;;27.95;53.75;96819.28;4981940;28;20520;-67
2021/06/04 10:59:29;;;;;;;3.00;2.80;;;;;;;28.04;52.97;96826.22;4990937;28;20442;-68
2021/06/04 11:02:14;;;;;;;3.40;3.20;;;;;;;28.00;53.07;96821.78;4990040;28;20434;-62
2021/06/04 11:04:57;;;;;;;4.60;4.07;;;;;;;27.98;54.48;96830.22;4990501;28;20448;-69
2021/06/04 11:07:30;;;;;;;4.27;3.47;;;;;;;27.99;54.26;96831.81;4989678;28;20424;-65
2021/06/04 11:10:04;;;;;;;3.77;3.47;;;;;;;28.02;55.19;96839.28;4988195;28;21306;-69
2021/06/04 11:13:00;;;;;;;3.67;3.37;;;;;;;28.14;55.92;96835.88;4990165;28;20405;-67
2021/06/04 11:15:41;;;;;;;3.67;3.33;;;;;;;28.20;54.23;96824.56;4990281;28;20421;-68
2021/06/04 11:18:38;;;;;;;4.00;3.70;;;;;;;28.19;56.97;96825.66;4990079;28;20459;-67
2021/06/04 11:21:05;;;;;;;5.73;4.00;;;;;;;28.11;55.12;96829.22;4991939;28;20487;-68
2021/06/04 11:23:47;;;;;;;4.00;3.33;;;;;;;28.38;55.19;96828.75;4994088;28;20967;-68
2021/06/04 11:26:28;;;;;;;3.73;3.53;;;;;;;28.53;54.61;96829.31;4993359;28;20907;-66
2021/06/04 11:29:16;;;;;;;5.13;3.63;;;;;;;28.35;52.65;96823.19;4994441;28;20428;-67
2021/06/04 11:32:00;;;;;;;5.63;4.13;;;;;;;28.21;53.39;96823.41;4993202;28;21017;-64
2021/06/04 11:34:46;;;;;;;4.27;3.50;;;;;;;28.24;54.28;96811.97;4994241;28;20555;-64
2021/06/04 11:37:23;;;;;;;4.70;3.50;;;;;;;28.38;53.46;96812.50;4994144;28;20555;-67
2021/06/04 11:39:52;;;;;;;4.10;3.80;;;;;;;28.49;53.88;96804.00;4991021;28;20435;-68
2021/06/04 11:42:25;;;;;;;3.60;3.33;;;;;;;28.49;54.40;96791.28;4987754;28;20749;-69
2021/06/04 11:44:55;;;;;;;3.53;3.23;;;;;;;28.50;54.84;96782.03;4974675;28;20821;-68
2021/06/04 11:47:20;;;;;;;2.93;2.73;;;;;;;28.53;53.22;96792.22;4993618;28;20424;-69
2021/06/04 11:50:06;;;;;;;3.70;3.40;;;;;;;28.54;52.42;96790.28;4993704;28;20968;-67
2021/06/04 11:52:50;;;;;;;5.10;3.60;;;;;;;28.37;53.44;96802.78;4974156;28;20182;-65
2021/06/04 11:55:28;;;;;;;4.63;3.93;;;;;;;28.21;55.66;96804.50;4975112;28;20832;-67
2021/06/04 11:58:17;;;;;;;4.30;3.90;;;;;;;28.16;56.66;96801.97;4982982;28;20421;-68